createdAt,value
2018-08-13T00:00:11.405Z,20.50
2018-08-13T00:02:40.979Z,20.50
2018-08-13T00:05:09.735Z,20.50
2018-08-13T00:07:38.479Z,20.50
2018-08-13T00:10:07.400Z,20.40
2018-08-13T00:12:36.404Z,20.30
2018-08-13T00:15:05.032Z,20.30
2018-08-13T00:17:33.791Z,20.30
2018-08-13T00:20:02.334Z,20.20
2018-08-13T00:22:30.934Z,20.20
2018-08-13T00:25:00.046Z,20.10
2018-08-13T00:27:28.894Z,20.10
2018-08-13T00:29:57.693Z,20.10
2018-08-13T00:32:26.415Z,20.00
2018-08-13T00:34:55.048Z,19.90
2018-08-13T00:37:24.144Z,19.80
2018-08-13T00:39:53.838Z,19.90
2018-08-13T00:42:22.552Z,19.80
2018-08-13T00:44:51.198Z,19.80
2018-08-13T00:47:20.539Z,19.80
2018-08-13T00:49:49.263Z,19.80
2018-08-13T00:52:18.627Z,19.80
2018-08-13T00:54:47.398Z,19.70
2018-08-13T00:57:16.211Z,19.80
2018-08-13T00:59:45.099Z,19.70
2018-08-13T01:02:14.950Z,19.70
2018-08-13T01:04:43.865Z,19.60
2018-08-13T01:07:12.805Z,19.60
2018-08-13T01:09:41.985Z,19.60
2018-08-13T01:12:10.805Z,19.60
2018-08-13T01:14:39.816Z,19.60
2018-08-13T01:17:08.339Z,19.60
2018-08-13T01:19:37.906Z,19.60
2018-08-13T01:22:06.576Z,19.60
2018-08-13T01:24:35.337Z,19.60
2018-08-13T01:27:04.286Z,19.60
2018-08-13T01:29:33.247Z,19.60
2018-08-13T01:32:02.905Z,19.70
2018-08-13T01:34:31.546Z,19.70
2018-08-13T01:37:00.589Z,19.70
2018-08-13T01:39:29.176Z,19.70
2018-08-13T01:41:59.342Z,19.70
2018-08-13T01:44:28.060Z,19.70
2018-08-13T01:46:57.848Z,19.70
2018-08-13T01:49:27.317Z,19.70
2018-08-13T01:51:56.021Z,19.70
2018-08-13T01:54:24.757Z,19.60
2018-08-13T01:56:53.776Z,19.60
2018-08-13T01:59:22.492Z,19.60
2018-08-13T02:01:51.139Z,19.60
2018-08-13T02:04:20.136Z,19.60
2018-08-13T02:06:48.914Z,19.60
2018-08-13T02:09:17.894Z,19.60
2018-08-13T02:11:47.361Z,19.40
2018-08-13T02:14:16.044Z,19.40
2018-08-13T02:16:44.950Z,19.40
2018-08-13T02:19:13.844Z,19.30
2018-08-13T02:21:42.584Z,19.30
2018-08-13T02:24:11.852Z,19.20
2018-08-13T02:26:40.548Z,19.20
2018-08-13T02:29:10.192Z,19.20
2018-08-13T02:31:39.223Z,19.20
2018-08-13T02:34:08.279Z,19.20
2018-08-13T02:36:37.116Z,19.20
2018-08-13T02:39:07.933Z,19.20
2018-08-13T02:41:36.565Z,19.10
2018-08-13T02:44:05.306Z,19.20
2018-08-13T02:46:34.054Z,19.20
2018-08-13T02:49:02.970Z,19.30
2018-08-13T02:51:32.660Z,19.30
2018-08-13T02:54:01.747Z,19.20
2018-08-13T02:56:30.306Z,19.20
2018-08-13T02:58:59.320Z,19.20
2018-08-13T03:01:28.420Z,19.30
2018-08-13T03:03:57.072Z,19.30
2018-08-13T03:06:26.107Z,19.20
2018-08-13T03:08:54.615Z,19.30
2018-08-13T03:11:23.806Z,19.30
2018-08-13T03:13:52.992Z,19.30
2018-08-13T03:16:21.776Z,19.30
2018-08-13T03:18:50.463Z,19.30
2018-08-13T03:21:19.540Z,19.30
2018-08-13T03:23:48.410Z,19.30
2018-08-13T03:26:17.512Z,19.30
2018-08-13T03:28:46.169Z,19.20
2018-08-13T03:31:15.901Z,19.10
2018-08-13T03:33:44.679Z,19.10
2018-08-13T03:36:13.622Z,19.10
2018-08-13T03:38:42.310Z,19.10
2018-08-13T03:41:10.970Z,19.10
2018-08-13T03:43:39.741Z,19.00
2018-08-13T03:46:08.501Z,19.00
2018-08-13T03:48:37.130Z,19.00
2018-08-13T03:51:06.690Z,18.80
2018-08-13T03:53:35.621Z,18.90
2018-08-13T03:56:04.439Z,18.80
2018-08-13T03:58:33.362Z,18.80
2018-08-13T04:01:02.343Z,18.80
2018-08-13T04:03:31.143Z,18.70
2018-08-13T04:05:59.791Z,18.70
2018-08-13T04:08:28.621Z,18.80
2018-08-13T04:10:57.380Z,18.80
2018-08-13T04:13:26.022Z,18.90
2018-08-13T04:15:54.880Z,18.80
2018-08-13T04:18:23.706Z,18.80
2018-08-13T04:20:52.295Z,18.80
2018-08-13T04:23:20.950Z,18.70
2018-08-13T04:25:49.469Z,18.70
2018-08-13T04:28:18.229Z,18.70
2018-08-13T04:30:47.451Z,18.70
2018-08-13T04:33:16.187Z,18.60
2018-08-13T04:35:46.720Z,18.60
2018-08-13T04:38:16.829Z,18.60
2018-08-13T04:40:46.443Z,18.60
2018-08-13T04:43:15.716Z,18.60
2018-08-13T04:45:44.479Z,18.60
2018-08-13T04:48:14.874Z,18.60
2018-08-13T04:50:44.060Z,18.60
2018-08-13T04:53:13.655Z,18.70
2018-08-13T04:55:42.833Z,18.70
2018-08-13T04:58:12.005Z,18.70
2018-08-13T05:00:42.224Z,18.80
2018-08-13T05:03:11.732Z,18.80
2018-08-13T05:05:40.606Z,18.80
2018-08-13T05:08:09.441Z,18.90
2018-08-13T05:10:38.262Z,18.90
2018-08-13T05:13:06.969Z,18.90
2018-08-13T05:15:41.388Z,19.00
2018-08-13T05:18:10.177Z,19.00
2018-08-13T05:20:39.385Z,19.00
2018-08-13T05:23:08.179Z,19.10
2018-08-13T05:25:37.953Z,19.10
2018-08-13T05:28:08.193Z,19.10
2018-08-13T05:30:37.280Z,19.20
2018-08-13T05:33:06.995Z,19.30
2018-08-13T05:35:36.333Z,19.30
2018-08-13T05:38:06.126Z,19.40
2018-08-13T05:40:35.681Z,19.40
2018-08-13T05:43:05.043Z,19.50
2018-08-13T05:45:37.243Z,19.50
2018-08-13T05:48:06.087Z,19.50
2018-08-13T05:50:36.950Z,19.50
2018-08-13T05:53:15.910Z,19.50
2018-08-13T05:55:46.295Z,19.50
2018-08-13T05:58:15.378Z,19.50
2018-08-13T06:00:45.304Z,19.50
2018-08-13T06:03:14.208Z,19.60
2018-08-13T06:05:42.896Z,19.70
2018-08-13T06:08:11.788Z,19.80
2018-08-13T06:10:40.468Z,19.90
2018-08-13T06:13:10.190Z,19.90
2018-08-13T06:15:39.144Z,20.00
2018-08-13T06:18:07.768Z,20.10
2018-08-13T06:20:37.072Z,20.20
2018-08-13T06:23:06.144Z,20.40
2018-08-13T06:25:35.015Z,20.40
2018-08-13T06:28:03.880Z,20.40
2018-08-13T06:30:32.394Z,20.30
2018-08-13T06:33:01.068Z,20.20
2018-08-13T06:35:30.111Z,20.20
2018-08-13T06:37:58.886Z,20.30
2018-08-13T06:40:27.873Z,20.40
2018-08-13T06:42:56.647Z,20.50
2018-08-13T06:45:25.321Z,20.60
2018-08-13T06:47:54.017Z,20.70
2018-08-13T06:50:22.897Z,20.70
2018-08-13T06:52:51.613Z,20.70
2018-08-13T06:55:20.513Z,20.70
2018-08-13T06:57:49.292Z,20.80
2018-08-13T07:00:18.150Z,21.00
2018-08-13T07:02:47.391Z,21.10
2018-08-13T07:05:16.224Z,21.10
2018-08-13T07:07:45.610Z,21.10
2018-08-13T07:10:15.949Z,21.10
2018-08-13T07:12:46.574Z,21.10
2018-08-13T07:15:16.019Z,21.10
2018-08-13T07:17:44.906Z,21.10
2018-08-13T07:20:16.293Z,20.80
2018-08-13T07:22:45.242Z,20.70
2018-08-13T07:25:14.286Z,20.70
2018-08-13T07:27:43.191Z,20.70
2018-08-13T07:30:13.156Z,20.90
2018-08-13T07:32:42.885Z,20.90
2018-08-13T07:35:11.575Z,20.90
2018-08-13T07:37:40.672Z,21.00
2018-08-13T07:40:12.841Z,20.90
2018-08-13T07:42:41.528Z,20.70
2018-08-13T07:45:10.694Z,20.70
2018-08-13T07:47:39.964Z,20.70
2018-08-13T07:50:10.363Z,20.80
2018-08-13T07:52:39.461Z,20.90
2018-08-13T07:55:09.283Z,21.00
2018-08-13T07:57:38.382Z,20.90
2018-08-13T08:00:09.327Z,20.90
2018-08-13T08:02:38.484Z,20.80
2018-08-13T08:05:07.667Z,20.80
2018-08-13T08:07:36.876Z,20.80
2018-08-13T08:10:08.090Z,20.80
2018-08-13T08:12:37.149Z,20.70
2018-08-13T08:15:09.449Z,20.60
2018-08-13T08:17:38.624Z,20.60
2018-08-13T08:20:07.703Z,20.50
2018-08-13T08:22:37.908Z,20.50
2018-08-13T08:25:11.267Z,20.50
2018-08-13T08:27:40.222Z,20.50
2018-08-13T08:30:10.499Z,20.60
2018-08-13T08:32:39.855Z,20.60
2018-08-13T08:35:10.888Z,20.60
2018-08-13T08:37:40.282Z,20.70
2018-08-13T08:40:10.927Z,20.60
2018-08-13T08:42:39.944Z,20.60
2018-08-13T08:45:13.014Z,20.60
2018-08-13T08:47:41.914Z,20.60
2018-08-13T08:50:10.988Z,20.50
2018-08-13T08:52:39.704Z,20.60
2018-08-13T08:55:08.832Z,20.70
2018-08-13T08:57:37.617Z,20.80
2018-08-13T09:00:10.095Z,20.60
2018-08-13T09:02:38.788Z,20.50
2018-08-13T09:05:08.311Z,20.50
2018-08-13T09:07:37.976Z,20.40
2018-08-13T09:10:07.023Z,20.20
